AirNav   Air Wisconsin Up To $57,000 Bonus
 
 1244 users online  

85MO Rogersville Remote Fuel Site Heliport
Rogersville, Missouri, USA

GOING TO ROGERSVILLE?


FAA INFORMATION EFFECTIVE 07 NOVEMBER 2019

Location

FAA Identifier: 85MO
Lat/Long: 37-07-03.4100N 093-01-46.7400W
37-07.056833N 093-01.779000W
37.1176139,-93.0296500
(estimated)
Elevation: 1475 ft. / 450 m (estimated)
From city: 1 mile E of ROGERSVILLE, MO
Time zone: UTC -6 (UTC -5 during Daylight Saving Time)
Zip code: 65652

Heliport Operations

Heliport use: Private use. Permission required prior to landing
Activation date: 09/2015
Control tower: no
ARTCC: KANSAS CITY CENTER
FSS: COLUMBIA FLIGHT SERVICE STATION
Attendance: UNATTNDED
Wind indicator: yes
Segmented circle: no

Heliport Communications

WX ASOS at SGF (19 nm NW): PHONE 417-863-6158

Nearby radio navigation aids

VOR radial/distance  VOR name  Freq  Var
DGDr307/9.2DOGWOOD VORTAC109.4001E
SGFr131/20.4SPRINGFIELD VORTAC116.9004E

Heliport Services

Runway Information

Helipad H1

Dimensions: 40 x 40 ft. / 12 x 12 m
Surface: concrete/gravel
Runway edge lights: PERI
Latitude: 37-07.056833N
Longitude: 093-01.779000W
Traffic pattern: leftleft

Heliport Ownership and Management from official FAA records

Ownership: Privately-owned
Owner: AIR EVAC EMS, INC
100 BOARDWALK SPRINGS PL. STE 250
O'FALLON, MO 63368
Phone 317-370-4813
Manager: DOUGLAS NASH
1001 BOARDWALK SPRINGS PL. STE 250
O'FALLON, MO 63368
Phone 317-370-4813

Additional Remarks

FOR CD CTC SPRINGFIELD APCH AT 417-868-5620/5619.

Instrument Procedures

There are no published instrument procedures at 85MO.

Some nearby airports with instrument procedures:

3DW - Downtown Airport (12 nm NW)
KSGF - Springfield-Branson National Airport (19 nm NW)
KAOV - Ava Bill Martin Memorial Airport (19 nm SE)
KFWB - Branson West Municipal Airport - Emerson Field (31 nm SW)
KPLK - M Graham Clark Downtown Airport (31 nm S)
 
Loc | Ops | Rwys | IFR | FBO | Links
Com | Nav | Svcs | Stats | Notes
Aerial photo
No photo
 
Airport distance calculator
Flying to Rogersville Remote Fuel Site Heliport? Find the distance to fly.

From to 85MO

Sunrise and sunset
Times for 15-Nov-2019
 Local
(UTC-6)
 Zulu
(UTC)
Morning civil twilight06:2412:24
Sunrise06:5212:52
Sunset17:0223:02
Evening civil twilight17:2923:29

Current date and time
Zulu (UTC)  15-Nov-2019 20:18:26
Local (UTC-6)  15-Nov-2019 14:18:26
 
METAR
KSGF 
18nm W 
151952Z 11004KT 10SM CLR 10/M05 A3033 RMK AO2 SLP278 T01001050 $
KFWB 
31nm SW 
151955Z AUTO 00000KT 10SM CLR 12/M07 A3034 RMK AO2 P0002 PWINO PNO
KBBG 
36nm S 
151945Z 00000KT 10SM SKC 09/M10 A3035
TAF
KSGF 
18nm W 
151720Z 1518/1618 VRB04KT P6SM SKC FM160300 14005KT P6SM SKC
NOTAMs
Click for the latest NOTAMs
NOTAMs are issued by the DoD/FAA and will open in a separate window not controlled by AirNav.

 

 
 

Would you like to see your business listed on this page?

 If your business provides an interesting product or service to pilots, flight crews, aircraft, or users of the Rogersville Remote Fuel Site Heliport, you should consider listing it here.  To start the listing process, click on the button below
 
Add a business
 

Other Pages about Rogersville Remote Fuel Site Heliport

Update a link
 
Copyright © AirNav, LLC. All rights reserved. Privacy Policy  Contact